Time;durP1;ratioP1;P1;durP2;ratioP2;P2;SDS_P1;SDS_P2;PMS_P1;PMS_P2;Temp;Humidity;BMP_temperature;BMP_pressure;BME280_temperature;BME280_humidity;BME280_pressure;Samples;Min_cycle;Max_cycle;Signal;HPM_P1;HPM_P2
2022/12/03 00:01:21;;;;;;;1.45;1.35;;;;;;;-13.06;80.45;101935.56;4904030;29;20100;-85
2022/12/03 00:03:48;;;;;;;1.50;1.40;;;;;;;-13.24;80.58;101919.38;4904881;29;20063;-84
2022/12/03 00:06:16;;;;;;;1.70;1.60;;;;;;;-13.12;80.76;101936.50;4907905;29;20053;-85
2022/12/03 00:08:43;;;;;;;1.50;1.40;;;;;;;-13.13;80.84;101940.84;4905380;29;20055;-84
2022/12/03 00:11:11;;;;;;;1.50;1.40;;;;;;;-13.21;80.73;101924.53;4903649;29;20068;-84
2022/12/03 00:13:39;;;;;;;1.50;1.40;;;;;;;-13.19;80.71;101927.06;4896495;29;20049;-85
2022/12/03 00:16:06;;;;;;;1.60;1.50;;;;;;;-13.22;80.83;101927.97;4895053;29;20099;-84
2022/12/03 00:18:34;;;;;;;1.50;1.40;;;;;;;-13.27;80.91;101922.03;4896007;29;20081;-85
2022/12/03 00:21:01;;;;;;;1.60;1.50;;;;;;;-13.18;81.03;101934.00;4895027;29;20053;-85
2022/12/03 00:23:28;;;;;;;1.52;1.42;;;;;;;-13.22;80.96;101933.19;4895991;29;20057;-85
2022/12/03 00:25:56;;;;;;;1.33;1.23;;;;;;;-13.27;81.22;101929.81;4895985;29;20049;-85
2022/12/03 00:28:23;;;;;;;1.45;1.35;;;;;;;-13.24;80.88;101936.69;4896251;29;20052;-84
2022/12/03 00:30:52;;;;;;;1.42;1.33;;;;;;;-13.28;81.21;101930.72;4896273;29;20048;-85
2022/12/03 00:33:20;;;;;;;1.55;1.45;;;;;;;-13.28;81.10;101928.13;4896304;29;20140;-85
2022/12/03 00:35:48;;;;;;;1.70;1.60;;;;;;;-13.34;81.07;101926.47;4896351;29;20147;-85
2022/12/03 00:38:15;;;;;;;1.60;1.50;;;;;;;-13.30;81.28;101942.88;4897108;29;20057;-83
2022/12/03 00:40:42;;;;;;;1.50;1.40;;;;;;;-13.30;81.25;101945.47;4903274;29;20159;-85
2022/12/03 00:43:09;;;;;;;1.58;1.48;;;;;;;-13.35;81.19;101939.47;4915412;29;20067;-84
2022/12/03 00:45:36;;;;;;;1.40;1.30;;;;;;;-13.35;81.07;101947.25;4915265;29;20139;-86
2022/12/03 00:48:03;;;;;;;1.33;1.23;;;;;;;-13.43;81.21;101947.38;4915423;29;20407;-85
2022/12/03 00:50:30;;;;;;;1.60;1.50;;;;;;;-13.38;81.31;101957.72;4924201;29;20060;-85
2022/12/03 00:52:57;;;;;;;1.60;1.50;;;;;;;-13.41;81.24;101944.75;4937353;29;20152;-85
2022/12/03 00:55:24;;;;;;;1.50;1.40;;;;;;;-13.40;81.38;101957.72;4927522;29;20127;-86
2022/12/03 00:57:51;;;;;;;1.60;1.50;;;;;;;-13.41;81.65;101955.16;4913859;29;20063;-86
2022/12/03 01:00:23;;;;;;;1.60;1.50;;;;;;;-13.35;81.61;101968.06;4916922;29;20052;-85
2022/12/03 01:02:51;;;;;;;1.60;1.50;;;;;;;-13.35;81.45;101965.44;4916585;29;20059;-85
2022/12/03 01:05:19;;;;;;;1.80;1.70;;;;;;;-13.37;81.39;101970.66;4916462;29;20063;-83
2022/12/03 01:07:46;;;;;;;1.60;1.50;;;;;;;-13.42;81.42;101963.81;4915911;29;20146;-86
2022/12/03 01:10:13;;;;;;;1.50;1.40;;;;;;;-13.40;81.48;101969.84;4917490;29;20048;-85
2022/12/03 01:12:41;;;;;;;1.60;1.50;;;;;;;-13.43;81.62;101969.91;4917371;29;20812;-86
2022/12/03 01:15:09;;;;;;;1.27;1.20;;;;;;;-13.40;81.47;101975.06;4901131;29;20071;-85
2022/12/03 01:17:36;;;;;;;1.50;1.40;;;;;;;-13.42;81.29;101974.19;4917275;29;20128;-86
2022/12/03 01:20:04;;;;;;;1.60;1.50;;;;;;;-13.45;81.50;101961.25;4917854;29;20075;-86
2022/12/03 01:22:31;;;;;;;1.50;1.40;;;;;;;-13.45;81.48;101975.09;4917711;29;20056;-85
2022/12/03 01:24:58;;;;;;;1.50;1.40;;;;;;;-13.47;81.59;101976.00;4921425;29;20052;-87
2022/12/03 01:27:26;;;;;;;1.50;1.40;;;;;;;-13.50;81.50;101973.44;4938803;29;20063;-85
2022/12/03 01:29:54;;;;;;;1.48;1.38;;;;;;;-13.53;81.50;101979.53;4931291;29;20050;-85
2022/12/03 01:32:21;;;;;;;1.35;1.25;;;;;;;-13.55;81.48;101973.50;4924938;29;20052;-83
2022/12/03 01:34:50;;;;;;;1.70;1.60;;;;;;;-13.62;81.54;101972.72;4917588;29;20052;-85
2022/12/03 01:37:20;;;;;;;1.70;1.60;;;;;;;-13.59;81.31;101975.28;4917990;29;20047;-85
2022/12/03 01:39:48;;;;;;;1.48;1.38;;;;;;;-13.62;81.38;101972.72;4917620;29;20062;-84
2022/12/03 01:42:28;;;;;;;1.50;1.40;;;;;;;-13.66;81.69;101980.56;4917801;29;20056;-85
2022/12/03 01:44:57;;;;;;;1.20;1.15;;;;;;;-13.69;81.59;101970.22;4917728;29;20056;-85
2022/12/03 01:47:29;;;;;;;1.75;1.65;;;;;;;-13.70;81.53;101973.69;4910127;29;20096;-85
2022/12/03 01:50:03;;;;;;;1.60;1.50;;;;;;;-13.72;81.66;101976.31;4934252;29;20060;-84
2022/12/03 01:52:32;;;;;;;;;;;;;;;-13.73;81.57;101978.91;4935210;29;20113;-85
2022/12/03 01:55:01;;;;;;;1.60;1.50;;;;;;;-13.75;81.62;101981.50;4916592;29;19927;-85
2022/12/03 01:57:49;;;;;;;1.40;1.30;;;;;;;-13.76;81.61;101982.41;4916216;29;20103;-85
2022/12/03 02:00:22;;;;;;;1.50;1.40;;;;;;;-13.79;81.45;101985.03;4917133;29;20059;-85
2022/12/03 02:03:20;;;;;;;1.33;1.23;;;;;;;-13.81;81.63;101987.66;4915326;29;20056;-85
2022/12/03 02:05:47;;;;;;;1.50;1.40;;;;;;;-13.84;81.63;101976.44;4915527;29;20048;-85
2022/12/03 02:08:35;;;;;;;1.10;1.10;;;;;;;-13.82;81.43;101987.66;4917686;29;20529;-85
2022/12/03 02:11:17;;;;;;;1.38;1.27;;;;;;;-13.85;81.61;101982.50;4915938;29;20056;-85
2022/12/03 02:14:11;;;;;;;1.40;1.30;;;;;;;-13.89;81.78;101973.03;4915555;29;20377;-85
2022/12/03 02:16:40;;;;;;;1.50;1.40;;;;;;;-13.92;81.56;101979.13;4915979;29;20048;-85
2022/12/03 02:19:16;;;;;;;1.80;1.70;;;;;;;-13.94;81.77;101991.25;4915214;29;20150;-85
2022/12/03 02:22:07;;;;;;;1.70;1.60;;;;;;;-13.98;81.98;101990.41;4916130;29;20078;-84
2022/12/03 02:24:52;;;;;;;1.67;1.58;;;;;;;-13.97;81.97;101986.94;4915834;29;20062;-84
2022/12/03 02:27:21;;;;;;;1.40;1.30;;;;;;;-14.02;81.82;101982.69;4914952;29;20052;-84
2022/12/03 02:29:48;;;;;;;1.40;1.30;;;;;;;-14.00;82.10;101981.78;4916195;29;20107;-84
2022/12/03 02:32:15;;;;;;;1.58;1.48;;;;;;;-13.98;82.15;101984.34;4920386;29;20093;-85
2022/12/03 02:34:44;;;;;;;1.60;1.50;;;;;;;-14.01;82.02;101974.88;4917251;29;20416;-84
2022/12/03 02:37:14;;;;;;;1.60;1.50;;;;;;;-14.01;82.01;101976.59;4916464;29;20507;-86
2022/12/03 02:39:46;;;;;;;1.50;1.40;;;;;;;-14.06;82.12;101976.66;4899161;29;20052;-84
2022/12/03 02:45:18;;;;;;;1.60;1.50;;;;;;;-14.06;82.09;101974.06;4916174;29;20143;-84
2022/12/03 02:48:12;;;;;;;1.38;1.27;;;;;;;-14.07;82.16;101977.53;4915813;29;20056;-85
2022/12/03 02:50:42;;;;;;;1.50;1.40;;;;;;;-14.10;82.19;101982.75;4915685;29;20056;-85
2022/12/03 02:53:14;;;;;;;1.52;1.42;;;;;;;-14.08;82.19;101983.59;4916860;29;20052;-85
2022/12/03 02:55:41;;;;;;;1.60;1.50;;;;;;;-14.11;81.80;101987.97;4914453;29;20052;-85
2022/12/03 02:58:10;;;;;;;1.60;1.50;;;;;;;-14.15;82.11;101992.34;4916038;29;20088;-85
2022/12/03 03:00:37;;;;;;;1.40;1.30;;;;;;;-14.15;82.43;101997.53;4917427;29;20058;-85
2022/12/03 03:03:05;;;;;;;1.70;1.60;;;;;;;-14.10;82.21;101994.84;4918291;29;20060;-85
2022/12/03 03:05:34;;;;;;;1.50;1.40;;;;;;;-14.09;82.35;101997.44;4916577;29;20051;-85
2022/12/03 03:08:01;;;;;;;1.50;1.40;;;;;;;-14.09;82.25;101994.84;4899512;29;20055;-85
2022/12/03 03:10:29;;;;;;;1.60;1.50;;;;;;;-14.14;82.25;101990.59;4915758;29;20419;-84
2022/12/03 03:12:56;;;;;;;1.42;1.33;;;;;;;-14.16;82.16;101995.78;4914618;29;20091;-84
2022/12/03 03:15:24;;;;;;;1.52;1.42;;;;;;;-14.17;82.29;101993.22;4883877;29;20141;-85
2022/12/03 03:17:51;;;;;;;1.60;1.50;;;;;;;-14.13;82.30;102000.09;4915066;29;20135;-84
2022/12/03 03:20:19;;;;;;;1.60;1.50;;;;;;;-14.14;82.27;101996.63;4914260;29;20503;-85
2022/12/03 03:22:46;;;;;;;1.40;1.30;;;;;;;-14.16;82.23;101995.78;4915399;29;20245;-84
2022/12/03 03:25:16;;;;;;;1.50;1.40;;;;;;;-14.15;82.13;101997.53;4915532;29;20052;-85
2022/12/03 03:27:43;;;;;;;1.27;1.20;;;;;;;-14.14;81.98;101998.38;4915537;29;20052;-86
2022/12/03 03:30:12;;;;;;;1.38;1.27;;;;;;;-14.12;81.84;102000.09;4915527;29;20052;-85
2022/12/03 03:32:39;;;;;;;1.40;1.30;;;;;;;-14.10;81.79;102011.31;4915738;29;20059;-85
2022/12/03 03:35:07;;;;;;;1.50;1.40;;;;;;;-14.09;81.72;102001.78;4916403;29;20056;-85
2022/12/03 03:37:34;;;;;;;1.50;1.40;;;;;;;-14.10;81.50;102005.25;4900783;29;20051;-84
2022/12/03 03:40:02;;;;;;;1.40;1.30;;;;;;;-14.10;81.45;102007.84;4914524;29;20507;-85
2022/12/03 03:42:32;;;;;;;1.50;1.40;;;;;;;-14.08;81.58;102013.88;4915873;29;20099;-84
2022/12/03 03:44:59;;;;;;;1.70;1.60;;;;;;;-14.06;81.47;102007.78;4916440;29;20055;-85
2022/12/03 03:47:26;;;;;;;1.58;1.48;;;;;;;-14.02;81.42;102017.28;4914173;29;20527;-85
2022/12/03 03:49:53;;;;;;;1.80;1.70;;;;;;;-13.99;81.24;102013.81;4914246;29;20052;-86
2022/12/03 03:52:21;;;;;;;1.35;1.25;;;;;;;-13.97;81.11;102012.91;4914068;29;20155;-85
2022/12/03 03:54:48;;;;;;;1.20;1.20;;;;;;;-13.97;81.15;102012.91;4914099;29;20098;-84
2022/12/03 03:57:15;;;;;;;1.50;1.40;;;;;;;-13.99;81.15;102004.28;4914718;29;20047;-85
2022/12/03 03:59:42;;;;;;;1.50;1.40;;;;;;;-13.93;80.97;102018.06;4913374;29;20095;-84
2022/12/03 04:02:20;;;;;;;1.40;1.30;;;;;;;-13.94;81.25;102021.56;4914722;29;20044;-85
2022/12/03 04:04:48;;;;;;;1.13;1.13;;;;;;;-13.99;81.15;102017.25;4913956;29;20111;-83
2022/12/03 04:07:15;;;;;;;1.10;1.10;;;;;;;-13.99;80.87;102019.84;4908956;29;20452;-81
2022/12/03 04:09:42;;;;;;;1.50;1.40;;;;;;;-14.01;80.85;102023.34;4883244;29;20091;-80
2022/12/03 04:14:57;;;;;;;1.10;1.10;;;;;;;-14.04;80.78;102026.81;4897197;29;20045;-84
2022/12/03 04:17:24;;;;;;;1.13;1.13;;;;;;;-14.04;80.81;102029.41;4891039;29;20060;-84
2022/12/03 04:19:52;;;;;;;1.17;1.17;;;;;;;-14.08;80.87;102025.13;4894003;29;20381;-86
2022/12/03 04:30:37;;;;;;;1.45;1.35;;;;;;;-14.14;80.85;102030.38;4896695;29;20052;-85
2022/12/03 04:35:58;;;;;;;1.48;1.38;;;;;;;-14.16;80.56;102039.06;4904302;29;20072;-86
2022/12/03 04:38:26;;;;;;;1.20;1.20;;;;;;;-14.13;80.95;102041.63;4902388;29;20052;-85
2022/12/03 04:41:02;;;;;;;1.70;1.60;;;;;;;-14.16;80.70;102052.88;4925792;29;20132;-90
2022/12/03 04:43:33;;;;;;;1.50;1.40;;;;;;;-14.16;80.71;102044.25;4902582;29;20083;-90
2022/12/03 04:46:09;;;;;;;1.45;1.35;;;;;;;-14.22;80.59;102047.75;4911138;29;20083;-86
2022/12/03 04:48:36;;;;;;;1.67;1.58;;;;;;;-14.30;80.40;102044.34;4899231;29;20045;-88
2022/12/03 04:51:03;;;;;;;1.35;1.25;;;;;;;-14.32;80.59;102054.75;4897121;29;20063;-89
2022/12/03 04:53:39;;;;;;;1.80;1.70;;;;;;;-14.29;80.60;102061.66;4883157;29;20056;-90
2022/12/03 04:56:12;;;;;;;1.45;1.35;;;;;;;-14.29;80.48;102066.84;4891968;29;20048;-88
2022/12/03 04:58:40;;;;;;;1.45;1.35;;;;;;;-14.31;80.64;102059.06;4896939;29;20057;-88
2022/12/03 05:01:06;;;;;;;1.52;1.42;;;;;;;-14.33;80.59;102063.38;4886353;29;20053;-89
2022/12/03 05:03:34;;;;;;;1.17;1.17;;;;;;;-14.39;80.46;102058.25;4886365;29;20088;-85
2022/12/03 05:06:01;;;;;;;1.45;1.35;;;;;;;-14.39;80.64;102060.84;4888108;29;20053;-87
2022/12/03 05:08:37;;;;;;;1.40;1.30;;;;;;;-14.42;80.57;102071.25;4881857;29;20056;-83
2022/12/03 05:11:04;;;;;;;1.40;1.30;;;;;;;-14.43;80.50;102080.78;4897234;29;20064;-86
2022/12/03 05:13:35;;;;;;;1.60;1.50;;;;;;;-14.50;80.41;102073.91;4898755;29;20076;-89
2022/12/03 05:16:04;;;;;;;1.50;1.40;;;;;;;-14.51;80.44;102082.53;4884478;29;20131;-87
2022/12/03 05:18:31;;;;;;;1.45;1.35;;;;;;;-14.55;80.48;102072.25;4874014;29;20124;-91
2022/12/03 05:21:13;;;;;;;1.55;1.45;;;;;;;-14.55;80.59;102080.88;4891051;29;20128;-85
2022/12/03 05:23:41;;;;;;;1.60;1.50;;;;;;;-14.61;80.55;102083.50;4882005;29;20044;-86
2022/12/03 05:26:08;;;;;;;1.20;1.20;;;;;;;-14.60;80.41;102081.78;4898454;29;20056;-86
2022/12/03 05:28:36;;;;;;;1.35;1.25;;;;;;;-14.66;80.37;102085.25;4880211;29;20052;-87
2022/12/03 05:31:03;;;;;;;1.73;1.63;;;;;;;-14.63;80.53;102090.44;4890982;29;20053;-85
2022/12/03 05:33:31;;;;;;;1.70;1.60;;;;;;;-14.55;80.51;102096.44;4876251;29;20813;-86
2022/12/03 05:35:59;;;;;;;1.40;1.30;;;;;;;-14.59;80.37;102099.91;4896606;29;20053;-87
2022/12/03 05:38:26;;;;;;;1.40;1.30;;;;;;;-14.55;80.40;102108.56;4893370;29;20049;-86
2022/12/03 05:40:53;;;;;;;1.52;1.42;;;;;;;-14.57;80.21;102105.97;4898125;29;20052;-82
2022/12/03 05:43:20;;;;;;;1.50;1.40;;;;;;;-14.54;80.06;102105.09;4902999;29;20527;-83
2022/12/03 05:45:48;;;;;;;1.45;1.35;;;;;;;-14.54;80.10;102118.91;4896508;29;20084;-82
2022/12/03 05:48:16;;;;;;;1.40;1.30;;;;;;;-14.50;80.07;102114.53;4895066;29;20053;-83
2022/12/03 05:50:44;;;;;;;1.60;1.50;;;;;;;-14.48;80.24;102115.38;4900078;29;20059;-83
2022/12/03 05:53:15;;;;;;;1.40;1.30;;;;;;;-14.39;80.24;102117.06;4901756;29;20044;-85
2022/12/03 05:55:42;;;;;;;1.33;1.23;;;;;;;-14.35;80.31;102116.16;4903447;29;20145;-85
2022/12/03 05:58:10;;;;;;;1.70;1.60;;;;;;;-14.25;80.65;102110.06;4901033;29;20053;-85
2022/12/03 06:00:37;;;;;;;1.50;1.40;;;;;;;-14.19;80.47;102110.00;4898620;29;20116;-84
2022/12/03 06:03:09;;;;;;;1.60;1.50;;;;;;;-14.07;80.65;102114.25;4902920;29;20766;-84
2022/12/03 06:05:37;;;;;;;1.50;1.40;;;;;;;-14.07;80.54;102099.53;4854670;29;20076;-85
2022/12/03 06:08:04;;;;;;;1.10;1.10;;;;;;;-13.90;80.50;102101.13;4897938;29;20045;-84
2022/12/03 06:10:32;;;;;;;1.27;1.20;;;;;;;-13.83;80.65;102097.59;4898456;29;20093;-84
2022/12/03 06:12:59;;;;;;;1.55;1.45;;;;;;;-13.82;80.72;102102.78;4906867;29;20052;-84
2022/12/03 06:15:27;;;;;;;1.50;1.40;;;;;;;-13.83;80.97;102089.81;4881476;29;20048;-85
2022/12/03 06:17:54;;;;;;;1.65;1.55;;;;;;;-13.71;80.92;102092.28;4906181;29;20055;-85
2022/12/03 06:20:21;;;;;;;1.42;1.33;;;;;;;-13.62;81.09;102096.53;4897823;29;20049;-85
2022/12/03 06:22:48;;;;;;;1.58;1.48;;;;;;;-13.56;81.25;102107.72;4898673;29;20052;-85
2022/12/03 06:25:15;;;;;;;1.45;1.35;;;;;;;-13.44;81.07;102103.28;4897652;29;20063;-86
2022/12/03 06:27:43;;;;;;;1.58;1.48;;;;;;;-13.38;81.37;102104.09;4897754;29;20052;-84
2022/12/03 06:30:12;;;;;;;1.40;1.30;;;;;;;-13.33;81.35;102110.09;4897685;29;20480;-84
2022/12/03 06:32:39;;;;;;;1.42;1.33;;;;;;;-13.28;81.08;102102.25;4896473;29;20055;-85
2022/12/03 06:35:07;;;;;;;1.40;1.30;;;;;;;-13.28;81.49;102086.66;4897433;29;20064;-86
2022/12/03 06:37:35;;;;;;;1.15;1.15;;;;;;;-13.20;81.31;102095.19;4897543;29;20056;-84
2022/12/03 06:40:03;;;;;;;1.33;1.23;;;;;;;-13.13;81.27;102104.63;4898613;29;20053;-84
2022/12/03 06:42:30;;;;;;;1.65;1.55;;;;;;;-13.06;81.17;102095.03;4897733;29;20052;-85
2022/12/03 06:44:57;;;;;;;1.50;1.40;;;;;;;-12.98;81.16;102094.94;4898793;29;20160;-85
2022/12/03 06:47:24;;;;;;;1.48;1.38;;;;;;;-12.91;81.17;102093.97;4898218;29;20048;-85
2022/12/03 06:49:51;;;;;;;1.45;1.35;;;;;;;-12.84;81.02;102095.59;4898971;29;20555;-85
2022/12/03 06:52:18;;;;;;;1.40;1.30;;;;;;;-12.85;80.98;102093.91;4897081;29;20056;-85
2022/12/03 06:54:45;;;;;;;1.23;1.20;;;;;;;-12.76;81.19;102103.31;4897819;29;20109;-86
2022/12/03 06:57:13;;;;;;;1.40;1.30;;;;;;;-12.72;81.12;102092.84;4903389;29;20057;-85
2022/12/03 06:59:40;;;;;;;1.50;1.40;;;;;;;-12.60;81.13;102096.19;4903449;29;20103;-85
2022/12/03 07:02:07;;;;;;;1.60;1.50;;;;;;;-12.59;80.88;102098.75;4904578;29;20052;-85
2022/12/03 07:04:34;;;;;;;1.33;1.23;;;;;;;-12.51;80.94;102096.03;4906611;29;20136;-87
2022/12/03 07:07:10;;;;;;;1.40;1.30;;;;;;;-12.40;80.75;102096.75;4882619;29;20056;-84
2022/12/03 07:09:38;;;;;;;1.52;1.42;;;;;;;-12.39;80.68;102106.28;4902264;29;20512;-85
2022/12/03 07:12:05;;;;;;;1.42;1.33;;;;;;;-12.37;80.66;102088.91;4899905;29;20049;-86
2022/12/03 07:14:32;;;;;;;1.35;1.25;;;;;;;-12.27;80.40;102089.63;4896475;29;20076;-85
2022/12/03 07:16:59;;;;;;;1.40;1.30;;;;;;;-12.16;80.56;102092.91;4900222;29;20055;-84
2022/12/03 07:19:27;;;;;;;1.60;1.50;;;;;;;-12.24;80.19;102090.41;4901829;29;20060;-85
2022/12/03 07:21:58;;;;;;;1.60;1.50;;;;;;;-12.06;80.06;102098.84;4897750;29;20155;-85
2022/12/03 07:24:26;;;;;;;1.38;1.27;;;;;;;-11.93;80.13;102095.13;4896737;29;20056;-85
2022/12/03 07:26:53;;;;;;;1.58;1.48;;;;;;;-11.95;79.99;102089.09;4898420;29;20139;-85
2022/12/03 07:29:21;;;;;;;1.23;1.20;;;;;;;-11.95;79.81;102086.47;4898919;29;20060;-85
2022/12/03 07:31:48;;;;;;;1.50;1.40;;;;;;;-11.78;79.89;102094.00;4897170;29;20096;-85
2022/12/03 07:34:15;;;;;;;1.50;1.40;;;;;;;-11.64;79.80;102092.00;4895782;29;20407;-85
2022/12/03 07:36:57;;;;;;;1.48;1.38;;;;;;;-11.59;79.49;102092.78;4889836;29;20091;-85
2022/12/03 07:39:25;;;;;;;1.48;1.38;;;;;;;-11.57;79.45;102092.75;4881102;29;20515;-85
2022/12/03 07:41:52;;;;;;;1.50;1.40;;;;;;;-11.54;79.50;102095.31;4902328;29;20190;-85
2022/12/03 07:44:19;;;;;;;1.50;1.40;;;;;;;-11.51;79.26;102090.03;4901877;29;20088;-85
2022/12/03 07:46:47;;;;;;;1.60;1.50;;;;;;;-11.43;79.40;102085.53;4898549;29;20104;-85
2022/12/03 07:49:15;;;;;;;1.52;1.42;;;;;;;-11.30;79.13;102088.78;4902053;29;20053;-85
2022/12/03 07:51:45;;;;;;;1.50;1.40;;;;;;;-11.28;79.14;102081.78;4880664;29;20059;-85
2022/12/03 07:54:14;;;;;;;1.60;1.50;;;;;;;-11.14;78.87;102077.16;4896070;29;20108;-85
2022/12/03 07:56:49;;;;;;;1.58;1.48;;;;;;;-11.09;78.94;102094.44;4895247;29;20531;-85
2022/12/03 07:59:20;;;;;;;1.50;1.40;;;;;;;-11.13;78.91;102078.88;4896538;29;20100;-85
2022/12/03 08:01:47;;;;;;;1.70;1.60;;;;;;;-11.03;78.97;102089.13;4895006;29;20509;-85
2022/12/03 08:04:17;;;;;;;1.60;1.50;;;;;;;-10.91;78.54;102089.75;4901522;29;20056;-85
2022/12/03 08:06:47;;;;;;;1.40;1.30;;;;;;;-10.83;78.47;102088.72;4896862;29;20052;-92
2022/12/03 08:09:30;;;;;;;1.38;1.27;;;;;;;-10.67;78.45;102084.88;4876059;29;20088;-87
2022/12/03 08:12:41;;;;;;;1.70;1.60;;;;;;;-10.69;78.38;102068.38;4902932;29;20080;-84
2022/12/03 08:15:14;;;;;;;1.42;1.33;;;;;;;-10.52;78.19;102084.53;4897562;29;20056;-86
2022/12/03 08:17:47;;;;;;;1.50;1.40;;;;;;;-10.59;78.09;102069.91;4905470;29;20407;-86
2022/12/03 08:20:22;;;;;;;1.60;1.50;;;;;;;-10.58;77.96;102075.97;4911238;29;20618;-87
2022/12/03 08:22:51;;;;;;;1.40;1.30;;;;;;;-10.42;78.16;102077.34;4906852;29;20072;-88
2022/12/03 08:25:31;;;;;;;1.50;1.40;;;;;;;-10.34;77.91;102082.41;4865800;29;20060;-84
2022/12/03 08:28:11;;;;;;;1.40;1.30;;;;;;;-10.39;77.84;102076.44;4893328;29;20056;-83
2022/12/03 08:30:42;;;;;;;1.40;1.30;;;;;;;-10.22;78.14;102084.69;4887875;29;20117;-84
2022/12/03 08:33:21;;;;;;;1.50;1.40;;;;;;;-10.21;78.09;102075.09;4876640;29;20092;-87
2022/12/03 08:35:57;;;;;;;1.70;1.60;;;;;;;-10.14;77.95;102076.69;4910554;29;20053;-86
2022/12/03 08:38:26;;;;;;;1.50;1.40;;;;;;;-10.12;77.67;102070.53;4898809;29;20048;-87
2022/12/03 08:40:54;;;;;;;1.55;1.45;;;;;;;-10.15;77.66;102057.53;4888971;29;20052;-89
2022/12/03 08:43:27;;;;;;;1.60;1.50;;;;;;;-10.04;77.52;102072.94;4906155;29;20077;-88
2022/12/03 08:45:56;;;;;;;1.10;1.10;;;;;;;-10.07;77.23;102054.75;4903968;29;20059;-88
2022/12/03 08:48:38;;;;;;;1.33;1.23;;;;;;;-9.97;77.51;102076.28;4902606;29;20044;-88
2022/12/03 08:51:24;;;;;;;1.40;1.30;;;;;;;-9.90;77.73;102081.31;4901956;29;20044;-88
2022/12/03 08:54:13;;;;;;;1.30;1.20;;;;;;;-9.84;77.69;102083.75;4905367;29;20053;-89
2022/12/03 08:56:42;;;;;;;1.42;1.33;;;;;;;-9.85;77.46;102083.78;4890651;29;20045;-89
2022/12/03 08:59:27;;;;;;;1.40;1.30;;;;;;;-9.89;77.38;102061.25;4907404;29;20143;-90
2022/12/03 09:01:58;;;;;;;1.30;1.20;;;;;;;-9.87;77.42;102072.53;4908921;29;20052;-89
2022/12/03 09:04:45;;;;;;;1.50;1.40;;;;;;;-9.73;77.53;102078.25;4907644;29;20077;-86
2022/12/03 09:07:22;;;;;;;1.23;1.20;;;;;;;-9.69;77.60;102079.03;4882917;29;20052;-88
2022/12/03 09:09:54;;;;;;;1.40;1.30;;;;;;;-9.70;77.53;102078.16;4903691;29;20087;-89
2022/12/03 09:12:21;;;;;;;1.30;1.20;;;;;;;-9.65;77.74;102081.50;4889793;29;20120;-90
2022/12/03 09:14:48;;;;;;;1.27;1.20;;;;;;;-9.67;77.64;102062.44;4875180;29;20076;-90
2022/12/03 09:17:17;;;;;;;1.38;1.27;;;;;;;-9.72;77.75;102061.69;4873335;29;20064;-91
2022/12/03 09:19:58;;;;;;;1.30;1.20;;;;;;;-9.64;77.98;102056.25;4850282;29;20056;-91
2022/12/03 09:22:25;;;;;;;1.15;1.15;;;;;;;-9.56;78.02;102069.13;4888296;29;20052;-90
2022/12/03 09:24:52;;;;;;;1.40;1.30;;;;;;;-9.50;78.19;102075.03;4890500;29;20121;-88
2022/12/03 09:27:21;;;;;;;1.30;1.20;;;;;;;-9.57;78.44;102068.25;4886488;29;20065;-90
2022/12/03 09:29:51;;;;;;;1.60;1.50;;;;;;;-9.54;78.63;102072.53;4886454;29;20264;-89
2022/12/03 09:32:22;;;;;;;1.30;1.20;;;;;;;-9.61;78.81;102072.72;4848589;29;20057;-88
2022/12/03 09:34:49;;;;;;;1.45;1.35;;;;;;;-9.63;79.09;102050.97;4890616;29;20052;-88
2022/12/03 09:37:16;;;;;;;1.00;1.00;;;;;;;-9.44;78.98;102079.25;4860244;29;20049;-88
2022/12/03 09:40:08;;;;;;;1.30;1.20;;;;;;;-9.37;78.94;102067.72;4897632;29;20147;-88
2022/12/03 09:43:17;;;;;;;1.40;1.30;;;;;;;-9.39;79.27;102064.31;5066043;23;20063;31
2022/12/03 09:49:33;;;;;;;1.40;1.30;;;;;;;-9.39;79.48;102064.31;4883821;29;20061;-92
2022/12/03 09:52:35;;;;;;;1.40;1.30;;;;;;;-9.27;79.91;102071.78;4856930;29;20044;-90
2022/12/03 09:55:27;;;;;;;1.35;1.25;;;;;;;-9.35;79.78;102063.31;4862508;29;20056;-90
2022/12/03 09:58:14;;;;;;;1.50;1.40;;;;;;;-9.48;79.84;102041.84;4956911;23;20026;-90
2022/12/03 10:00:57;;;;;;;1.42;1.33;;;;;;;-9.45;80.01;102054.00;4874119;29;20056;-90
2022/12/03 10:03:45;;;;;;;1.38;1.27;;;;;;;-9.36;80.11;102056.38;4877350;29;20045;-88
2022/12/03 10:06:15;;;;;;;;;;;;;;;-9.23;80.32;102067.34;4904499;29;20492;-89
2022/12/03 10:08:53;;;;;;;1.42;1.33;;;;;;;-9.20;80.33;102055.03;4865436;29;20145;-89
2022/12/03 10:11:24;;;;;;;1.40;1.30;;;;;;;-9.09;80.27;102067.78;4869388;29;20064;-88
2022/12/03 10:13:55;;;;;;;1.35;1.25;;;;;;;-9.04;80.37;102068.53;4874137;29;20375;-86
2022/12/03 10:16:23;;;;;;;1.30;1.20;;;;;;;-9.01;80.40;102063.22;4846008;29;20046;-86
2022/12/03 10:18:56;;;;;;;1.40;1.30;;;;;;;-9.09;80.46;102053.84;4868128;29;20061;-85
2022/12/03 10:21:31;;;;;;;1.40;1.30;;;;;;;-9.10;80.30;102067.84;4858398;29;20059;-85
2022/12/03 10:24:35;;;;;;;1.30;1.20;;;;;;;-9.12;80.52;102070.50;4848577;29;20130;-86
2022/12/03 10:27:19;;;;;;;1.50;1.40;;;;;;;-9.11;80.54;102068.75;4811799;29;20085;-87
2022/12/03 10:29:56;;;;;;;1.50;1.40;;;;;;;-9.01;80.61;102067.59;4829614;29;20058;-87
2022/12/03 10:33:01;;;;;;;1.40;1.30;;;;;;;-9.04;80.21;102071.16;4825936;29;20059;-88
2022/12/03 10:35:37;;;;;;;1.30;1.20;;;;;;;-9.04;80.38;102059.81;4807729;29;20081;-85
2022/12/03 10:38:06;;;;;;;1.08;1.08;;;;;;;-9.08;80.20;102058.22;4825625;29;20058;-86
2022/12/03 10:40:38;;;;;;;1.30;1.20;;;;;;;-9.06;79.97;102074.69;4837429;29;20046;-87
2022/12/03 10:43:18;;;;;;;1.35;1.25;;;;;;;-9.04;80.35;102072.91;4602588;23;10001592;-91
2022/12/03 10:46:19;;;;;;;1.33;1.23;;;;;;;-9.00;80.23;102072.78;4939426;29;20140;-91
2022/12/03 10:49:20;;;;;;;1.30;1.20;;;;;;;-9.08;80.08;102069.53;4929891;29;20040;-92
2022/12/03 10:52:39;;;;;;;1.40;1.30;;;;;;;-9.04;80.30;102062.44;4925918;29;20048;-90
2022/12/03 10:55:17;;;;;;;1.30;1.20;;;;;;;-9.14;80.07;102060.97;4909759;29;20043;-92
2022/12/03 11:01:18;;;;;;;1.42;1.33;;;;;;;-9.07;80.31;102058.16;4939484;23;20044;-93
2022/12/03 11:03:49;;;;;;;1.20;1.20;;;;;;;-8.94;80.40;102074.34;4928122;29;20087;-92
2022/12/03 11:06:39;;;;;;;1.40;1.30;;;;;;;-9.03;80.19;102092.94;4914109;29;20137;-91
2022/12/03 11:09:27;;;;;;;1.15;1.15;;;;;;;-9.11;80.29;102069.63;4887043;29;20081;-93
2022/12/03 11:12:06;;;;;;;1.20;1.20;;;;;;;-9.02;80.57;102081.56;4898287;29;20063;-93
2022/12/03 11:14:54;;;;;;;1.13;1.13;;;;;;;-9.04;80.54;102088.59;4861943;29;20064;-89
2022/12/03 11:17:46;;;;;;;1.20;1.17;;;;;;;-9.05;80.87;102089.50;4873190;29;20251;-93
2022/12/03 11:20:32;;;;;;;1.38;1.27;;;;;;;-9.02;80.95;102084.19;4847824;29;20049;-91
2022/12/03 11:23:01;;;;;;;1.50;1.40;;;;;;;-9.06;80.88;102083.44;4872370;29;20144;-88
2022/12/03 11:25:28;;;;;;;1.02;1.02;;;;;;;-9.03;80.84;102077.25;4871866;29;20108;-88
2022/12/03 11:28:11;;;;;;;1.10;1.10;;;;;;;-9.02;81.07;102079.81;4859660;29;20144;-87
2022/12/03 11:31:00;;;;;;;1.23;1.20;;;;;;;-8.99;81.38;102082.34;4870058;29;20064;-89
2022/12/03 11:33:29;;;;;;;1.40;1.30;;;;;;;-8.98;81.08;102088.44;4882584;29;20063;-89
2022/12/03 11:36:05;;;;;;;1.00;1.00;;;;;;;-8.96;81.33;102076.19;4886911;29;20080;-88
2022/12/03 11:38:36;;;;;;;1.25;1.20;;;;;;;-9.03;81.16;102082.47;4880451;29;20073;-89
2022/12/03 11:41:15;;;;;;;1.08;1.08;;;;;;;-9.01;81.30;102081.53;4881951;29;20063;-88
2022/12/03 11:43:55;;;;;;;1.30;1.20;;;;;;;-8.95;81.35;102085.72;4852134;29;20049;-90
2022/12/03 11:46:35;;;;;;;1.40;1.30;;;;;;;-8.97;81.45;102074.44;4867851;29;20143;-90
2022/12/03 11:49:22;;;;;;;1.08;1.08;;;;;;;-8.95;81.36;102083.13;4851408;29;20091;-90
2022/12/03 11:51:52;;;;;;;1.23;1.20;;;;;;;-9.04;81.51;102072.91;4864504;29;20056;-89
2022/12/03 11:54:26;;;;;;;1.15;1.15;;;;;;;-8.98;81.58;102073.59;4874108;29;20055;-88
2022/12/03 11:56:55;;;;;;;1.10;1.10;;;;;;;-8.96;81.65;102081.41;4882883;29;20144;-87
2022/12/03 11:59:22;;;;;;;1.30;1.20;;;;;;;-9.03;81.81;102062.41;4894268;29;20056;-88
2022/12/03 12:01:50;;;;;;;1.10;1.10;;;;;;;-9.04;81.88;102073.78;4888252;29;20053;-88
2022/12/03 12:04:50;;;;;;;1.23;1.20;;;;;;;-8.97;82.17;102079.69;4896798;29;20061;-88
2022/12/03 12:07:36;;;;;;;1.13;1.13;;;;;;;-9.03;82.26;102078.09;4883576;29;20143;-87